createdAt,value
2022-07-28T00:00:24.329Z,99528.42
2022-07-28T00:03:40.962Z,99526.20
2022-07-28T00:06:45.990Z,99533.55
2022-07-28T00:09:47.734Z,99534.51
2022-07-28T00:12:49.620Z,99536.44
2022-07-28T00:15:51.670Z,99540.91
2022-07-28T00:18:53.502Z,99543.52
2022-07-28T00:21:55.435Z,99540.80
2022-07-28T00:24:57.204Z,99539.05
2022-07-28T00:27:59.186Z,99540.39
2022-07-28T00:31:05.002Z,99538.96
2022-07-28T00:34:07.942Z,99541.92
2022-07-28T00:37:14.442Z,99547.02
2022-07-28T00:40:16.787Z,99548.48
2022-07-28T00:43:18.454Z,99549.33
2022-07-28T00:46:21.770Z,99549.99
2022-07-28T00:49:24.580Z,99551.33
2022-07-28T00:52:26.765Z,99557.90
2022-07-28T00:55:28.544Z,99557.60
2022-07-28T00:58:30.598Z,99553.01
2022-07-28T01:01:32.437Z,99557.66
2022-07-28T01:04:34.766Z,99555.35
2022-07-28T01:07:46.743Z,99560.86
2022-07-28T01:10:57.634Z,99566.05
2022-07-28T01:14:10.967Z,99571.62
2022-07-28T01:17:34.335Z,99579.46
2022-07-28T01:20:40.090Z,99584.27
2022-07-28T01:24:05.699Z,99585.74
2022-07-28T01:27:31.948Z,99588.96
2022-07-28T01:30:42.122Z,99591.36
2022-07-28T01:33:48.313Z,99589.11
2022-07-28T01:36:55.515Z,99595.17
2022-07-28T01:40:01.765Z,99592.01
2022-07-28T01:43:06.866Z,99590.83
2022-07-28T01:46:10.954Z,99591.08
2022-07-28T01:49:14.077Z,99597.50
2022-07-28T01:52:16.612Z,99594.75
2022-07-28T01:55:21.096Z,99591.81
2022-07-28T01:58:23.824Z,99589.61
2022-07-28T02:01:26.782Z,99586.23
2022-07-28T02:04:29.374Z,99579.21
2022-07-28T02:07:33.250Z,99576.70
2022-07-28T02:10:35.221Z,99576.14
2022-07-28T02:13:37.769Z,99575.91
2022-07-28T02:16:43.830Z,99581.33
2022-07-28T02:19:49.331Z,99582.27
2022-07-28T02:22:52.464Z,99586.16
2022-07-28T02:25:55.639Z,99587.79
2022-07-28T02:28:58.997Z,99590.32
2022-07-28T02:32:24.101Z,99595.20
2022-07-28T02:35:57.515Z,99589.45
2022-07-28T02:39:07.690Z,99588.21
2022-07-28T02:42:14.117Z,99592.14
2022-07-28T02:45:17.196Z,99594.81
2022-07-28T02:48:22.045Z,99598.39
2022-07-28T02:51:25.231Z,99605.86
2022-07-28T02:54:28.797Z,99606.13
2022-07-28T02:57:31.334Z,99615.86
2022-07-28T03:00:33.136Z,99615.88
2022-07-28T03:03:35.066Z,99622.05
2022-07-28T03:06:36.894Z,99625.97
2022-07-28T03:09:43.751Z,99631.45
2022-07-28T03:12:45.961Z,99636.39
2022-07-28T03:15:47.745Z,99639.03
2022-07-28T03:18:49.448Z,99638.58
2022-07-28T03:21:54.243Z,99641.86
2022-07-28T03:24:56.829Z,99643.52
2022-07-28T03:27:59.540Z,99648.44
2022-07-28T03:31:04.574Z,99653.29
2022-07-28T03:34:06.492Z,99658.02
2022-07-28T03:37:13.685Z,99661.30
2022-07-28T03:40:15.828Z,99657.02
2022-07-28T03:43:20.106Z,99653.14
2022-07-28T03:46:22.177Z,99654.77
2022-07-28T03:49:24.154Z,99654.63
2022-07-28T03:52:26.059Z,99656.27
2022-07-28T03:55:27.849Z,99653.33
2022-07-28T03:58:29.617Z,99652.69
2022-07-28T04:01:31.511Z,99652.74
2022-07-28T04:04:33.400Z,99656.89
2022-07-28T04:07:35.028Z,99661.48
2022-07-28T04:10:36.878Z,99663.81
2022-07-28T04:13:38.758Z,99666.27
2022-07-28T04:16:40.625Z,99677.11
2022-07-28T04:19:42.445Z,99680.16
2022-07-28T04:22:45.301Z,99679.79
2022-07-28T04:25:47.082Z,99681.20
2022-07-28T04:28:48.890Z,99678.67
2022-07-28T04:31:50.927Z,99681.44
2022-07-28T04:34:52.736Z,99677.98
2022-07-28T04:38:00.875Z,99680.96
2022-07-28T04:41:03.599Z,99681.39
2022-07-28T04:44:05.532Z,99682.57
2022-07-28T04:47:07.356Z,99685.02
2022-07-28T04:50:11.028Z,99684.13
2022-07-28T04:53:13.659Z,99689.64
2022-07-28T04:56:15.379Z,99692.70
2022-07-28T04:59:17.348Z,99693.04
2022-07-28T05:02:21.111Z,99691.31
2022-07-28T05:05:22.904Z,99694.48
2022-07-28T05:08:25.722Z,99695.73
2022-07-28T05:11:28.289Z,99697.75
2022-07-28T05:14:29.937Z,99696.91
2022-07-28T05:17:31.861Z,99696.93
2022-07-28T05:20:33.722Z,99699.61
2022-07-28T05:23:35.454Z,99702.66
2022-07-28T05:26:37.601Z,99710.82
2022-07-28T05:29:47.129Z,99709.92
2022-07-28T05:32:50.777Z,99709.86
2022-07-28T05:35:54.726Z,99709.30
2022-07-28T05:38:56.605Z,99715.55
2022-07-28T05:41:59.633Z,99718.05
2022-07-28T05:45:15.084Z,99715.27
2022-07-28T05:48:19.064Z,99721.35
2022-07-28T05:51:20.851Z,99725.20
2022-07-28T05:54:22.584Z,99726.72
2022-07-28T05:57:24.659Z,99731.85
2022-07-28T06:00:27.182Z,99732.11
2022-07-28T06:03:32.541Z,99734.64
2022-07-28T06:06:34.623Z,99735.82
2022-07-28T06:09:36.457Z,99734.98
2022-07-28T06:12:49.865Z,99733.70
2022-07-28T06:15:52.920Z,99735.20
2022-07-28T06:18:54.808Z,99736.58
2022-07-28T06:21:56.596Z,99739.33
2022-07-28T06:24:58.266Z,99743.95
2022-07-28T06:28:02.988Z,99740.90
2022-07-28T06:31:05.034Z,99747.49
2022-07-28T06:34:07.156Z,99743.77
2022-07-28T06:37:08.905Z,99747.02
2022-07-28T06:40:12.461Z,99742.53
2022-07-28T06:43:14.885Z,99746.57
2022-07-28T06:46:19.727Z,99741.44
2022-07-28T06:49:22.031Z,99741.72
2022-07-28T06:52:24.187Z,99744.14
2022-07-28T06:55:34.588Z,99746.65
2022-07-28T06:58:37.706Z,99746.05
2022-07-28T07:01:39.396Z,99745.73
2022-07-28T07:04:41.150Z,99747.11
2022-07-28T07:07:43.744Z,99748.46
2022-07-28T07:10:45.877Z,99748.48
2022-07-28T07:13:48.088Z,99751.16
2022-07-28T07:16:50.827Z,99752.04
2022-07-28T07:19:52.521Z,99749.14
2022-07-28T07:22:54.585Z,99750.27
2022-07-28T07:25:56.506Z,99746.36
2022-07-28T07:28:58.306Z,99748.53
2022-07-28T07:32:00.197Z,99748.34
2022-07-28T07:35:02.083Z,99748.70
2022-07-28T07:38:04.164Z,99746.05
2022-07-28T07:41:05.995Z,99748.64
2022-07-28T07:44:09.780Z,99744.98
2022-07-28T07:47:11.550Z,99745.45
2022-07-28T07:50:13.290Z,99748.59
2022-07-28T07:53:15.104Z,99751.44
2022-07-28T07:56:18.454Z,99746.33
2022-07-28T07:59:20.194Z,99746.03
2022-07-28T08:02:21.963Z,99741.05
2022-07-28T08:05:35.523Z,99738.85
2022-07-28T08:08:43.844Z,99743.58
2022-07-28T08:11:48.259Z,99745.89
2022-07-28T08:14:50.080Z,99746.27
2022-07-28T08:17:51.825Z,99754.36
2022-07-28T08:20:53.658Z,99756.43
2022-07-28T08:23:55.999Z,99749.48
2022-07-28T08:26:57.710Z,99749.14
2022-07-28T08:29:59.438Z,99745.34
2022-07-28T08:33:03.085Z,99743.05
2022-07-28T08:36:05.381Z,99745.36
2022-07-28T08:39:07.186Z,99743.63
2022-07-28T08:42:17.900Z,99735.95
2022-07-28T08:45:21.043Z,99744.98
2022-07-28T08:48:23.684Z,99744.30
2022-07-28T08:51:27.596Z,99745.44
2022-07-28T08:54:29.809Z,99750.98
2022-07-28T08:57:37.467Z,99740.70
2022-07-28T09:00:39.296Z,99739.33
2022-07-28T09:03:41.793Z,99742.31
2022-07-28T09:06:44.089Z,99741.19
2022-07-28T09:09:49.017Z,99732.87
2022-07-28T09:12:51.233Z,99731.58
2022-07-28T09:15:53.157Z,99730.41
2022-07-28T09:18:56.627Z,99730.00
2022-07-28T09:21:59.401Z,99733.53
2022-07-28T09:25:03.965Z,99728.84
2022-07-28T09:28:14.866Z,99725.17
2022-07-28T09:31:18.225Z,99724.86
2022-07-28T09:34:21.606Z,99726.89
2022-07-28T09:37:27.631Z,99725.59
2022-07-28T09:40:29.775Z,99729.30
2022-07-28T09:43:35.552Z,99725.34
2022-07-28T09:46:37.495Z,99716.91
2022-07-28T09:49:44.889Z,99717.41
2022-07-28T09:52:46.911Z,99719.81
2022-07-28T09:55:55.283Z,99722.80
2022-07-28T09:58:59.383Z,99716.80
2022-07-28T10:02:02.615Z,99723.27
2022-07-28T10:05:05.856Z,99721.20
2022-07-28T10:08:07.636Z,99720.67
2022-07-28T10:11:10.872Z,99719.85
2022-07-28T10:14:13.802Z,99725.22
2022-07-28T10:17:27.180Z,99726.78
2022-07-28T10:20:29.770Z,99724.66
2022-07-28T10:23:31.601Z,99727.07
2022-07-28T10:26:44.155Z,99719.79
2022-07-28T10:29:46.062Z,99711.73
2022-07-28T10:32:47.762Z,99702.27
2022-07-28T10:35:55.503Z,99704.26
2022-07-28T10:39:10.367Z,99703.99
2022-07-28T10:42:12.801Z,99702.30
2022-07-28T10:45:15.580Z,99701.38
2022-07-28T10:48:17.722Z,99699.31
2022-07-28T10:51:21.368Z,99697.49
2022-07-28T10:54:28.642Z,99694.79
2022-07-28T10:57:31.611Z,99694.23
2022-07-28T11:00:54.444Z,99691.34
2022-07-28T11:03:56.299Z,99692.70
2022-07-28T11:07:16.825Z,99691.50
2022-07-28T11:10:19.690Z,99689.21
2022-07-28T11:13:30.643Z,99689.84
2022-07-28T11:16:36.901Z,99689.15
2022-07-28T11:20:16.867Z,99684.77
2022-07-28T11:23:40.857Z,99678.16
2022-07-28T11:26:48.676Z,99673.31
2022-07-28T11:29:50.417Z,99677.30
2022-07-28T11:32:54.776Z,99681.66
2022-07-28T11:35:57.251Z,99682.40
2022-07-28T11:39:22.009Z,99677.22
2022-07-28T11:42:26.746Z,99675.51
2022-07-28T11:45:38.783Z,99675.11
2022-07-28T11:48:45.141Z,99674.25
2022-07-28T11:52:22.933Z,99671.65
2022-07-28T11:55:55.745Z,99668.02
2022-07-28T11:58:46.489Z,99665.27
2022-07-28T12:01:54.610Z,99664.33
2022-07-28T12:05:15.777Z,99664.88
2022-07-28T12:08:17.750Z,99663.77
2022-07-28T12:11:20.336Z,99664.64
2022-07-28T12:14:29.182Z,99660.52
2022-07-28T12:17:34.249Z,99658.50
2022-07-28T12:20:45.433Z,99654.40
2022-07-28T12:23:54.295Z,99649.80
2022-07-28T12:26:57.717Z,99652.59
2022-07-28T12:30:02.095Z,99648.67
2022-07-28T12:33:16.478Z,99645.71
2022-07-28T12:36:19.569Z,99646.80
2022-07-28T12:39:26.115Z,99647.27
2022-07-28T12:42:31.399Z,99644.52
2022-07-28T12:45:33.344Z,99640.80
2022-07-28T12:48:35.260Z,99640.34
2022-07-28T12:51:40.385Z,99631.56
2022-07-28T12:54:42.210Z,99629.26
2022-07-28T12:57:55.298Z,99627.03
2022-07-28T13:00:57.364Z,99624.11
2022-07-28T13:03:59.107Z,99617.64
2022-07-28T13:07:01.021Z,99621.59
2022-07-28T13:10:05.469Z,99624.59
2022-07-28T13:13:07.884Z,99620.20
2022-07-28T13:16:18.711Z,99623.75
2022-07-28T13:19:21.740Z,99614.94
2022-07-28T13:22:30.051Z,99612.47
2022-07-28T13:25:31.924Z,99614.13
2022-07-28T13:28:34.830Z,99611.55
2022-07-28T13:31:37.782Z,99608.75
2022-07-28T13:34:39.813Z,99613.69
2022-07-28T13:37:41.609Z,99612.88
2022-07-28T13:40:43.394Z,99610.33
2022-07-28T13:43:48.156Z,99609.48
2022-07-28T13:46:50.816Z,99607.31
2022-07-28T13:49:52.598Z,99609.27
2022-07-28T13:52:54.636Z,99606.21
2022-07-28T13:55:56.362Z,99606.94
2022-07-28T13:59:11.067Z,99610.80
2022-07-28T14:02:16.220Z,99607.03
2022-07-28T14:05:18.423Z,99601.92
2022-07-28T14:08:20.618Z,99601.58
2022-07-28T14:11:27.322Z,99605.80
2022-07-28T14:14:29.430Z,99601.56
2022-07-28T14:17:44.737Z,99600.64
2022-07-28T14:20:47.669Z,99598.45
2022-07-28T14:23:49.497Z,99604.05
2022-07-28T14:26:51.268Z,99606.73
2022-07-28T14:29:53.156Z,99606.14
2022-07-28T14:32:55.965Z,99605.52
2022-07-28T14:35:58.390Z,99596.41
2022-07-28T14:39:00.139Z,99590.08
2022-07-28T14:42:01.877Z,99588.84
2022-07-28T14:45:05.715Z,99590.27
2022-07-28T14:48:07.480Z,99596.02
2022-07-28T14:51:11.637Z,99597.86
2022-07-28T14:54:13.613Z,99588.75
2022-07-28T14:57:16.074Z,99585.98
2022-07-28T15:00:18.285Z,99584.24
2022-07-28T15:03:20.167Z,99579.11
2022-07-28T15:06:21.963Z,99581.25
2022-07-28T15:09:23.820Z,99577.61
2022-07-28T15:12:25.685Z,99577.31
2022-07-28T15:15:27.743Z,99574.27
2022-07-28T15:18:29.580Z,99572.75
2022-07-28T15:21:36.349Z,99570.23
2022-07-28T15:24:38.499Z,99568.02
2022-07-28T15:27:45.354Z,99560.55
2022-07-28T15:30:52.666Z,99563.14
2022-07-28T15:33:58.058Z,99558.98
2022-07-28T15:37:01.136Z,99555.59
2022-07-28T15:40:02.969Z,99554.02
2022-07-28T15:43:04.933Z,99550.01
2022-07-28T15:46:10.327Z,99552.67
2022-07-28T15:49:12.435Z,99550.81
2022-07-28T15:52:14.758Z,99556.48
2022-07-28T15:55:16.634Z,99558.44
2022-07-28T15:58:19.390Z,99556.27
2022-07-28T16:01:22.368Z,99558.44
2022-07-28T16:04:24.137Z,99556.59
2022-07-28T16:07:28.350Z,99556.27
2022-07-28T16:10:30.062Z,99554.60
2022-07-28T16:13:37.134Z,99549.27
2022-07-28T16:16:39.298Z,99554.55
2022-07-28T16:19:50.208Z,99551.26
2022-07-28T16:22:52.586Z,99549.67
2022-07-28T16:25:54.416Z,99551.11
2022-07-28T16:28:56.183Z,99550.56
2022-07-28T16:31:57.934Z,99556.05
2022-07-28T16:34:59.683Z,99557.48
2022-07-28T16:38:05.535Z,99556.33
2022-07-28T16:41:07.304Z,99551.16
2022-07-28T16:44:09.030Z,99554.79
2022-07-28T16:47:10.837Z,99556.88
2022-07-28T16:50:12.624Z,99553.90
2022-07-28T16:53:14.622Z,99556.77
2022-07-28T16:56:19.437Z,99557.91
2022-07-28T16:59:22.475Z,99557.36
2022-07-28T17:02:24.354Z,99557.61
2022-07-28T17:05:26.207Z,99560.74
2022-07-28T17:08:28.024Z,99565.27
2022-07-28T17:11:29.872Z,99567.70
2022-07-28T17:14:31.707Z,99570.95
2022-07-28T17:17:34.012Z,99568.61
2022-07-28T17:20:39.641Z,99561.60
2022-07-28T17:23:41.424Z,99568.95
2022-07-28T17:27:35.074Z,99569.12
2022-07-28T17:30:06.771Z,99576.23
2022-07-28T17:33:09.144Z,99579.77
2022-07-28T17:36:11.011Z,99577.13
2022-07-28T17:39:13.205Z,99581.33
2022-07-28T17:42:15.086Z,99584.49
2022-07-28T17:45:16.811Z,99586.88
2022-07-28T17:48:18.959Z,99590.67
2022-07-28T17:51:20.903Z,99593.77
2022-07-28T17:54:26.179Z,99595.95
2022-07-28T17:57:28.046Z,99595.61
2022-07-28T18:00:32.799Z,99599.20
2022-07-28T18:03:56.871Z,99602.27
2022-07-28T18:06:56.348Z,99605.38
2022-07-28T18:09:58.115Z,99608.29
2022-07-28T18:13:00.703Z,99611.35
2022-07-28T18:16:02.752Z,99613.52
2022-07-28T18:19:04.717Z,99609.31
2022-07-28T18:22:06.468Z,99610.47
2022-07-28T18:25:09.284Z,99606.30
2022-07-28T18:28:11.376Z,99608.32
2022-07-28T18:31:13.977Z,99611.44
2022-07-28T18:34:16.245Z,99611.72
2022-07-28T18:37:18.364Z,99613.33
2022-07-28T18:40:24.494Z,99619.38
2022-07-28T18:43:26.362Z,99621.80
2022-07-28T18:46:29.110Z,99624.80
2022-07-28T18:49:37.194Z,99627.16
2022-07-28T18:52:41.131Z,99631.02
2022-07-28T18:55:42.945Z,99633.52
2022-07-28T18:58:44.923Z,99633.73
2022-07-28T19:01:47.784Z,99643.20
2022-07-28T19:04:49.562Z,99642.21
2022-07-28T19:07:51.211Z,99647.21
2022-07-28T19:10:53.012Z,99650.27
2022-07-28T19:13:54.865Z,99648.64
2022-07-28T19:16:56.920Z,99652.02
2022-07-28T19:19:59.804Z,99655.71
2022-07-28T19:23:05.143Z,99656.45
2022-07-28T19:26:07.616Z,99657.86
2022-07-28T19:29:09.735Z,99658.42
2022-07-28T19:32:11.439Z,99660.93
2022-07-28T19:35:13.838Z,99660.86
2022-07-28T19:38:15.682Z,99658.50
2022-07-28T19:41:17.441Z,99654.95
2022-07-28T19:44:19.514Z,99660.59
2022-07-28T19:47:23.439Z,99660.27
2022-07-28T19:50:25.441Z,99661.34
2022-07-28T19:53:31.989Z,99659.31
2022-07-28T19:56:34.327Z,99660.30
2022-07-28T19:59:36.073Z,99656.48
2022-07-28T20:02:38.152Z,99661.31
2022-07-28T20:05:40.025Z,99663.36
2022-07-28T20:08:41.825Z,99666.52
2022-07-28T20:11:43.655Z,99668.73
2022-07-28T20:14:45.350Z,99673.77
2022-07-28T20:17:47.135Z,99675.52
2022-07-28T20:20:49.214Z,99672.70
2022-07-28T20:23:53.265Z,99674.54
2022-07-28T20:26:55.118Z,99672.29
2022-07-28T20:29:58.936Z,99675.77
2022-07-28T20:33:02.633Z,99673.27
2022-07-28T20:36:04.553Z,99676.73
2022-07-28T20:39:27.475Z,99678.61
2022-07-28T20:42:28.239Z,99686.90
2022-07-28T20:45:32.042Z,99687.05
2022-07-28T20:48:34.148Z,99685.13
2022-07-28T20:51:35.959Z,99683.50
2022-07-28T20:54:37.935Z,99684.73
2022-07-28T20:57:39.804Z,99680.15
2022-07-28T21:00:41.713Z,99680.89
2022-07-28T21:03:45.349Z,99686.70
2022-07-28T21:06:51.014Z,99687.80
2022-07-28T21:09:54.730Z,99686.92
2022-07-28T21:12:56.466Z,99684.86
2022-07-28T21:15:58.617Z,99692.25
2022-07-28T21:19:00.606Z,99695.18
2022-07-28T21:22:02.351Z,99693.81
2022-07-28T21:25:04.553Z,99697.66
2022-07-28T21:28:25.145Z,99699.84
2022-07-28T21:31:27.165Z,99700.16
2022-07-28T21:34:29.067Z,99704.63
2022-07-28T21:37:30.807Z,99706.14
2022-07-28T21:40:32.625Z,99706.02
2022-07-28T21:43:34.657Z,99707.08
2022-07-28T21:46:36.926Z,99709.39
2022-07-28T21:49:38.808Z,99711.88
2022-07-28T21:52:40.712Z,99719.20
2022-07-28T21:55:42.631Z,99720.61
2022-07-28T21:58:46.430Z,99729.70
2022-07-28T22:01:48.898Z,99727.18
2022-07-28T22:04:50.719Z,99734.40
2022-07-28T22:07:53.354Z,99736.95
2022-07-28T22:10:55.211Z,99735.44
2022-07-28T22:13:57.028Z,99738.33
2022-07-28T22:17:02.342Z,99733.45
2022-07-28T22:20:05.429Z,99738.16
2022-07-28T22:23:28.636Z,99739.73
2022-07-28T22:26:29.830Z,99742.55
2022-07-28T22:29:31.601Z,99740.59
2022-07-28T22:32:33.299Z,99741.79
2022-07-28T22:35:35.031Z,99744.10
2022-07-28T22:38:37.076Z,99746.06
2022-07-28T22:41:38.924Z,99742.48
2022-07-28T22:44:40.984Z,99743.90
2022-07-28T22:47:42.996Z,99740.54
2022-07-28T22:50:45.083Z,99736.38
2022-07-28T22:53:46.802Z,99739.91
2022-07-28T22:56:51.572Z,99743.64
2022-07-28T22:59:53.848Z,99744.25
2022-07-28T23:02:55.721Z,99739.30
2022-07-28T23:05:59.116Z,99738.84
2022-07-28T23:09:00.932Z,99738.35
2022-07-28T23:12:02.857Z,99734.96
2022-07-28T23:15:06.086Z,99738.65
2022-07-28T23:18:08.327Z,99744.30
2022-07-28T23:21:11.415Z,99747.36
2022-07-28T23:24:13.636Z,99744.17
2022-07-28T23:27:15.968Z,99743.88
2022-07-28T23:30:18.496Z,99743.39
2022-07-28T23:33:55.979Z,99742.53
2022-07-28T23:36:43.018Z,99740.14
2022-07-28T23:39:45.000Z,99741.46
2022-07-28T23:42:46.899Z,99737.57
2022-07-28T23:45:48.718Z,99735.28
2022-07-28T23:48:50.784Z,99735.41
2022-07-28T23:51:52.555Z,99738.58
2022-07-28T23:54:54.383Z,99739.36
2022-07-28T23:57:56.052Z,99740.92
